Time;durP1;ratioP1;P1;durP2;ratioP2;P2;SDS_P1;SDS_P2;PMS_P1;PMS_P2;Temp;Humidity;BMP_temperature;BMP_pressure;BME280_temperature;BME280_humidity;BME280_pressure;Samples;Min_cycle;Max_cycle;Signal;HPM_P1;HPM_P2
2021/07/09 00:01:43;;;;;;;3.60;2.03;;;17.10;99.90;;;;;;5116177;28;20667;-70
2021/07/09 00:04:10;;;;;;;2.03;1.90;;;17.10;99.90;;;;;;5116009;28;20718;-70
2021/07/09 00:06:36;;;;;;;10.43;2.47;;;17.10;99.90;;;;;;5115853;28;20612;-70
2021/07/09 00:09:04;;;;;;;4.70;2.00;;;17.10;99.90;;;;;;5116212;28;20673;-70
2021/07/09 00:11:32;;;;;;;2.70;1.97;;;17.10;99.90;;;;;;5115464;28;21155;-70
2021/07/09 00:13:58;;;;;;;1.43;1.33;;;17.10;99.90;;;;;;5115918;28;20599;-70
2021/07/09 00:16:25;;;;;;;7.87;2.20;;;17.10;99.90;;;;;;5115957;28;20695;-70
2021/07/09 00:18:51;;;;;;;3.33;2.30;;;17.00;99.90;;;;;;5097361;28;20662;-70
2021/07/09 00:21:17;;;;;;;1.80;1.70;;;17.00;99.90;;;;;;5116016;28;20600;-69
2021/07/09 00:23:44;;;;;;;2.13;1.90;;;17.00;99.90;;;;;;5115681;28;20677;-70
2021/07/09 00:26:12;;;;;;;2.43;2.20;;;17.00;99.90;;;;;;5115784;28;20620;-70
2021/07/09 00:28:39;;;;;;;4.80;2.30;;;17.00;99.90;;;;;;5115709;28;20600;-70
2021/07/09 00:31:06;;;;;;;2.67;1.83;;;17.00;99.90;;;;;;5097507;28;20617;-70
2021/07/09 00:33:33;;;;;;;6.33;2.30;;;17.00;99.90;;;;;;5114653;28;20662;-71
2021/07/09 00:35:59;;;;;;;3.60;2.10;;;17.00;99.90;;;;;;5114780;28;20719;-70
2021/07/09 00:38:26;;;;;;;2.20;2.10;;;17.00;99.90;;;;;;5115112;28;20685;-71
2021/07/09 00:40:52;;;;;;;2.10;1.90;;;16.90;99.90;;;;;;5115236;28;20642;-69
2021/07/09 00:43:19;;;;;;;6.43;2.03;;;16.90;99.90;;;;;;5115009;28;20623;-69
2021/07/09 00:45:46;;;;;;;2.20;2.10;;;16.90;99.90;;;;;;5115038;28;20593;-70
2021/07/09 00:48:12;;;;;;;2.00;1.90;;;16.90;99.90;;;;;;5096295;28;20632;-70
2021/07/09 00:50:38;;;;;;;2.50;2.10;;;16.90;99.90;;;;;;5115261;28;20593;-70
2021/07/09 00:53:06;;;;;;;5.23;1.93;;;16.90;99.90;;;;;;5114696;28;20593;-70
2021/07/09 00:55:33;;;;;;;4.80;2.10;;;16.90;99.90;;;;;;5114955;28;20581;-70
2021/07/09 00:58:01;;;;;;;4.53;2.10;;;16.90;99.90;;;;;;5114753;28;20691;-70
2021/07/09 01:00:29;;;;;;;2.10;2.00;;;16.90;99.90;;;;;;5114994;28;20592;-70
2021/07/09 01:02:56;;;;;;;3.10;2.30;;;16.90;99.90;;;;;;5114839;28;20596;-70
2021/07/09 01:05:22;;;;;;;2.80;2.03;;;16.90;99.90;;;;;;5114222;28;20978;-70
2021/07/09 01:07:49;;;;;;;4.90;3.20;;;16.90;99.90;;;;;;5114673;28;20605;-70
2021/07/09 01:10:17;;;;;;;2.07;1.87;;;16.90;99.90;;;;;;5114657;28;20985;-70
2021/07/09 01:12:44;;;;;;;2.90;1.77;;;16.80;99.90;;;;;;5114214;28;20635;-70
2021/07/09 01:15:13;;;;;;;5.40;2.50;;;16.80;99.90;;;;;;5114610;28;20596;-70
2021/07/09 01:17:40;;;;;;;2.63;2.37;;;16.70;99.90;;;;;;5114740;28;20643;-68
2021/07/09 01:20:09;;;;;;;10.13;2.97;;;16.70;99.90;;;;;;5114599;28;21130;-70
2021/07/09 01:22:38;;;;;;;2.10;2.00;;;16.70;99.90;;;;;;5114774;28;20593;-70
2021/07/09 01:25:10;;;;;;;4.40;2.13;;;16.70;99.90;;;;;;5114204;28;20620;-70
2021/07/09 01:27:38;;;;;;;4.53;2.90;;;16.70;99.90;;;;;;5114729;28;20653;-70
2021/07/09 01:30:08;;;;;;;3.57;2.60;;;16.70;99.90;;;;;;5096690;28;20716;-70
2021/07/09 01:32:34;;;;;;;3.10;2.27;;;16.70;99.90;;;;;;5096372;28;20725;-70
2021/07/09 01:35:01;;;;;;;4.53;2.50;;;16.70;99.90;;;;;;5114544;28;20588;-70
2021/07/09 01:37:27;;;;;;;4.70;2.30;;;16.70;99.90;;;;;;5114348;28;20990;-70
2021/07/09 01:39:53;;;;;;;2.73;2.50;;;16.70;99.90;;;;;;5096121;28;20688;-69
2021/07/09 01:42:20;;;;;;;4.10;2.43;;;16.80;99.90;;;;;;5114583;28;21139;-69
2021/07/09 01:44:46;;;;;;;3.17;2.40;;;16.80;99.90;;;;;;5114340;28;20605;-69
2021/07/09 01:47:13;;;;;;;3.37;2.17;;;16.80;99.90;;;;;;5114519;28;20581;-69
2021/07/09 01:49:55;;;;;;;2.63;2.43;;;16.80;99.90;;;;;;5095497;28;20620;-69
2021/07/09 01:52:23;;;;;;;2.40;2.20;;;16.80;99.90;;;;;;5114426;28;20600;-69
2021/07/09 01:54:49;;;;;;;3.43;2.47;;;16.80;99.90;;;;;;5113997;28;21190;-69
2021/07/09 01:57:16;;;;;;;2.73;2.30;;;16.90;99.90;;;;;;5114384;28;20616;-69
2021/07/09 01:59:43;;;;;;;9.40;2.57;;;16.90;99.90;;;;;;5114073;28;21030;-69
2021/07/09 02:02:11;;;;;;;2.43;2.33;;;16.90;99.90;;;;;;5114221;28;20605;-69
2021/07/09 02:05:08;;;;;;;4.23;2.30;;;16.90;99.90;;;;;;5113320;28;20607;-69
2021/07/09 02:07:35;;;;;;;2.47;2.13;;;16.90;99.90;;;;;;5097916;28;20642;-69
2021/07/09 02:10:06;;;;;;;2.50;2.33;;;16.80;99.90;;;;;;5113053;28;20719;-69
2021/07/09 02:12:33;;;;;;;2.53;2.30;;;16.80;99.90;;;;;;5113552;28;20954;-69
2021/07/09 02:15:02;;;;;;;5.43;2.80;;;16.80;99.90;;;;;;5114028;28;20691;-70
2021/07/09 02:17:28;;;;;;;3.67;2.27;;;16.80;99.90;;;;;;5114001;28;21182;-69
2021/07/09 02:19:54;;;;;;;3.17;2.87;;;16.80;99.90;;;;;;5095356;28;20619;-69
2021/07/09 02:22:21;;;;;;;2.47;2.20;;;16.80;99.90;;;;;;5113866;28;20645;-69
2021/07/09 02:24:50;;;;;;;3.23;2.50;;;16.80;99.90;;;;;;5113493;28;21087;-69
2021/07/09 02:27:17;;;;;;;4.03;2.50;;;16.80;99.90;;;;;;5113567;28;20708;-69
2021/07/09 02:29:43;;;;;;;4.70;2.70;;;16.90;99.90;;;;;;5113857;28;20599;-69
2021/07/09 02:32:12;;;;;;;2.77;2.57;;;16.90;99.90;;;;;;5113112;28;21198;-69
2021/07/09 02:34:40;;;;;;;3.73;2.63;;;16.90;99.90;;;;;;5113639;28;20616;-69
2021/07/09 02:37:09;;;;;;;6.40;2.67;;;16.80;99.90;;;;;;5113593;28;20600;-69
2021/07/09 02:39:37;;;;;;;3.40;2.43;;;16.80;99.90;;;;;;5113597;28;20574;-69
2021/07/09 02:42:04;;;;;;;2.90;2.60;;;16.80;99.90;;;;;;5113070;28;20997;-69
2021/07/09 02:44:31;;;;;;;2.37;2.23;;;16.80;99.90;;;;;;5112746;28;20616;-69
2021/07/09 02:46:57;;;;;;;2.60;2.40;;;16.70;99.90;;;;;;5113337;28;20708;-69
2021/07/09 02:49:24;;;;;;;7.87;3.03;;;16.70;99.90;;;;;;5113536;28;20653;-68
2021/07/09 02:51:51;;;;;;;2.80;2.60;;;16.70;99.90;;;;;;5113182;28;20616;-69
2021/07/09 02:54:17;;;;;;;3.30;3.00;;;16.70;99.90;;;;;;5113534;28;20604;-69
2021/07/09 02:56:44;;;;;;;2.73;2.40;;;16.70;99.90;;;;;;5113573;28;21146;-69
2021/07/09 02:59:11;;;;;;;3.93;2.70;;;16.70;99.90;;;;;;5113334;28;20652;-69
2021/07/09 03:01:41;;;;;;;3.20;2.40;;;16.70;99.90;;;;;;5113077;28;20641;-69
2021/07/09 03:04:09;;;;;;;3.60;2.30;;;16.70;99.90;;;;;;5098742;28;21166;-69
2021/07/09 03:06:35;;;;;;;2.97;2.60;;;16.70;99.90;;;;;;5094903;28;20608;-69
2021/07/09 03:09:04;;;;;;;5.17;2.23;;;16.70;99.90;;;;;;5112885;28;20812;-69
2021/07/09 03:11:30;;;;;;;3.90;2.47;;;16.70;99.90;;;;;;5091485;28;20649;-69
2021/07/09 03:13:57;;;;;;;2.40;2.30;;;16.70;99.90;;;;;;5110137;28;20610;-69
2021/07/09 03:16:23;;;;;;;9.67;3.07;;;16.70;99.90;;;;;;5115578;27;20615;-69
2021/07/09 03:18:49;;;;;;;1.93;1.83;;;16.60;99.90;;;;;;5099161;28;20663;-69
2021/07/09 03:21:16;;;;;;;6.87;2.70;;;16.60;99.90;;;;;;5099021;28;20615;-69
2021/07/09 03:23:42;;;;;;;2.50;2.40;;;16.40;99.90;;;;;;5099044;28;20663;-69
2021/07/09 03:26:08;;;;;;;4.80;2.60;;;16.40;99.90;;;;;;5117360;28;20683;-69
2021/07/09 03:28:35;;;;;;;3.07;2.87;;;16.30;99.90;;;;;;5081796;28;20640;-69
2021/07/09 03:31:01;;;;;;;3.63;3.43;;;16.30;99.90;;;;;;5098445;28;20701;-69
2021/07/09 03:33:28;;;;;;;3.87;3.67;;;16.30;99.90;;;;;;5116891;28;20652;-69
2021/07/09 03:35:54;;;;;;;3.90;3.60;;;16.30;99.90;;;;;;5116507;28;20711;-69
2021/07/09 03:38:21;;;;;;;3.03;2.83;;;16.10;99.90;;;;;;5116922;28;21007;-70
2021/07/09 03:40:48;;;;;;;4.60;3.70;;;16.00;99.90;;;;;;5098919;28;20652;-70
2021/07/09 03:43:15;;;;;;;5.33;3.87;;;15.90;99.90;;;;;;5116625;28;20611;-70
2021/07/09 03:45:41;;;;;;;4.20;3.90;;;15.90;99.90;;;;;;5116697;28;20584;-70
2021/07/09 03:48:08;;;;;;;5.00;4.60;;;15.90;99.90;;;;;;5081689;28;20653;-70
2021/07/09 03:50:34;;;;;;;4.37;4.07;;;15.90;99.90;;;;;;5098284;28;20596;-70
2021/07/09 03:53:00;;;;;;;4.20;3.80;;;16.00;99.90;;;;;;5116630;28;20584;-70
2021/07/09 03:55:27;;;;;;;5.37;3.93;;;15.90;99.90;;;;;;5116551;28;20953;-70
2021/07/09 03:57:53;;;;;;;6.43;5.13;;;15.90;99.90;;;;;;5116350;28;20650;-70
2021/07/09 04:00:20;;;;;;;4.93;4.40;;;16.00;99.90;;;;;;5116307;28;21014;-70
2021/07/09 04:02:46;;;;;;;5.00;4.50;;;15.90;99.90;;;;;;5116349;28;21134;-70
2021/07/09 04:05:13;;;;;;;4.97;4.20;;;15.90;99.90;;;;;;5097848;28;20624;-70
2021/07/09 04:07:40;;;;;;;4.80;4.40;;;15.80;99.90;;;;;;5116054;28;20666;-70
2021/07/09 04:10:08;;;;;;;6.60;4.23;;;15.70;99.90;;;;;;5116021;28;20647;-71
2021/07/09 04:12:34;;;;;;;5.67;5.00;;;15.70;99.90;;;;;;5116162;28;20632;-70
2021/07/09 04:15:00;;;;;;;5.33;4.37;;;15.70;99.90;;;;;;5115982;28;20596;-70
2021/07/09 04:17:27;;;;;;;7.43;4.90;;;15.70;99.90;;;;;;5116009;28;20599;-70
2021/07/09 04:19:53;;;;;;;6.23;4.10;;;15.70;99.90;;;;;;5115835;28;20650;-70
2021/07/09 04:22:19;;;;;;;4.90;4.60;;;15.70;99.90;;;;;;5115858;28;20562;-70
2021/07/09 04:24:45;;;;;;;5.30;4.13;;;15.70;99.90;;;;;;5115895;28;20783;-70
2021/07/09 04:27:13;;;;;;;5.60;4.40;;;15.70;99.90;;;;;;5114959;28;21002;-70
2021/07/09 04:29:39;;;;;;;10.73;5.00;;;15.70;99.90;;;;;;5115437;28;20605;-70
2021/07/09 04:32:06;;;;;;;10.10;5.53;;;15.70;99.90;;;;;;5114878;28;21210;-70
2021/07/09 04:34:32;;;;;;;17.10;5.93;;;15.70;99.90;;;;;;5115508;28;20596;-70
2021/07/09 04:36:59;;;;;;;5.30;4.87;;;15.70;99.90;;;;;;5116007;28;21142;-70
2021/07/09 04:39:25;;;;;;;5.63;4.83;;;15.70;99.90;;;;;;5115651;28;20655;-70
2021/07/09 04:41:51;;;;;;;10.90;5.60;;;15.70;99.90;;;;;;5115442;28;21158;-70
2021/07/09 04:44:18;;;;;;;5.67;5.17;;;15.70;99.90;;;;;;5115605;28;20605;-70
2021/07/09 04:46:44;;;;;;;5.67;5.17;;;15.80;99.90;;;;;;5115143;28;20612;-70
2021/07/09 04:49:10;;;;;;;6.27;4.87;;;15.80;99.90;;;;;;5115436;28;20611;-70
2021/07/09 04:51:36;;;;;;;6.47;5.17;;;15.80;99.90;;;;;;5115289;28;20624;-70
2021/07/09 04:54:03;;;;;;;6.80;5.20;;;15.80;99.90;;;;;;5115162;28;20604;-70
2021/07/09 04:56:29;;;;;;;10.30;5.27;;;15.90;99.90;;;;;;5114583;28;20620;-70
2021/07/09 04:58:57;;;;;;;8.20;4.80;;;15.90;99.90;;;;;;5115552;28;21265;-69
2021/07/09 05:01:23;;;;;;;4.73;4.43;;;15.90;99.90;;;;;;5096896;28;20617;-69
2021/07/09 05:03:49;;;;;;;4.97;4.50;;;15.90;99.90;;;;;;5097077;28;20624;-70
2021/07/09 05:06:15;;;;;;;6.13;5.07;;;15.90;99.90;;;;;;5115212;28;21045;-70
2021/07/09 05:08:41;;;;;;;6.20;4.87;;;15.90;99.90;;;;;;5096726;28;20608;-70
2021/07/09 05:11:08;;;;;;;8.40;5.30;;;16.00;99.90;;;;;;5114860;28;20596;-70
2021/07/09 05:13:38;;;;;;;6.60;4.67;;;16.00;99.90;;;;;;5115166;28;20997;-70
2021/07/09 05:16:06;;;;;;;9.30;5.50;;;15.90;99.90;;;;;;5114304;28;21174;-70
2021/07/09 05:18:33;;;;;;;6.93;4.70;;;16.00;99.90;;;;;;5114534;28;21193;-70
2021/07/09 05:21:00;;;;;;;7.10;4.93;;;16.00;99.90;;;;;;5114683;28;20674;-70
2021/07/09 05:23:26;;;;;;;5.37;4.87;;;16.00;99.90;;;;;;5114554;28;20588;-70
2021/07/09 05:25:54;;;;;;;7.63;4.90;;;16.00;99.90;;;;;;5114520;28;20643;-70
2021/07/09 05:28:21;;;;;;;8.13;5.53;;;16.00;99.90;;;;;;5113664;28;20631;-69
2021/07/09 05:30:47;;;;;;;5.97;5.37;;;16.10;99.90;;;;;;5114340;28;20604;-69
2021/07/09 05:33:17;;;;;;;5.50;5.10;;;16.20;99.90;;;;;;5114043;28;20655;-69
2021/07/09 05:35:44;;;;;;;8.07;5.10;;;16.10;99.90;;;;;;5113905;28;20612;-70
2021/07/09 05:38:11;;;;;;;5.67;5.10;;;16.20;99.90;;;;;;5114244;28;20636;-69
2021/07/09 05:40:37;;;;;;;5.70;4.30;;;16.20;99.90;;;;;;5113863;28;20979;-69
2021/07/09 05:43:04;;;;;;;14.07;6.00;;;16.20;99.90;;;;;;5114075;28;20603;-69
2021/07/09 05:45:30;;;;;;;6.37;4.83;;;16.30;99.90;;;;;;5113857;28;20683;-69
2021/07/09 05:47:57;;;;;;;5.73;5.30;;;16.30;99.90;;;;;;5113977;28;20620;-69
2021/07/09 05:50:25;;;;;;;6.53;5.47;;;16.30;99.90;;;;;;5110438;28;20627;-70
2021/07/09 05:52:54;;;;;;;5.47;4.87;;;16.40;99.90;;;;;;5113903;27;20616;-70
2021/07/09 05:55:21;;;;;;;18.83;5.63;;;16.30;99.90;;;;;;5113031;28;20691;-70
2021/07/09 05:57:47;;;;;;;5.23;4.80;;;16.40;99.90;;;;;;5113103;28;20624;-70
2021/07/09 06:00:15;;;;;;;5.83;5.03;;;16.50;99.90;;;;;;5113309;28;20658;-70
2021/07/09 06:02:45;;;;;;;5.87;4.60;;;16.50;99.90;;;;;;5113480;28;21245;-69
2021/07/09 06:05:14;;;;;;;9.13;5.00;;;16.60;99.90;;;;;;5113257;28;21198;-70
2021/07/09 06:07:40;;;;;;;5.00;4.40;;;16.60;99.90;;;;;;5112777;28;20628;-70
2021/07/09 06:10:07;;;;;;;6.80;5.77;;;16.60;99.90;;;;;;5117461;28;20615;-70
2021/07/09 06:12:34;;;;;;;5.33;4.83;;;16.60;99.90;;;;;;5123326;27;20628;-70
2021/07/09 06:15:01;;;;;;;7.13;4.53;;;16.70;99.90;;;;;;5113267;28;21135;-70
2021/07/09 06:17:28;;;;;;;5.20;4.80;;;16.70;99.90;;;;;;5113502;28;21058;-69
2021/07/09 06:19:54;;;;;;;6.10;5.53;;;16.70;99.90;;;;;;5113193;28;20652;-70
2021/07/09 06:22:21;;;;;;;5.80;5.00;;;16.60;99.90;;;;;;5113173;28;20620;-68
2021/07/09 06:24:47;;;;;;;8.83;6.17;;;16.60;99.90;;;;;;5113745;28;21127;-68
2021/07/09 06:27:13;;;;;;;5.33;4.93;;;16.70;99.90;;;;;;5113853;28;20597;-68
2021/07/09 06:29:40;;;;;;;6.33;5.10;;;16.70;99.90;;;;;;5113651;28;20599;-67
2021/07/09 06:32:06;;;;;;;7.50;4.90;;;16.80;99.90;;;;;;5112936;28;20652;-68
2021/07/09 06:34:34;;;;;;;5.73;5.20;;;16.90;99.90;;;;;;5113521;28;20596;-67
2021/07/09 06:37:00;;;;;;;5.30;4.80;;;16.90;99.90;;;;;;5112898;28;20620;-67
2021/07/09 06:39:27;;;;;;;5.63;4.53;;;17.00;99.90;;;;;;5113294;28;20635;-68
2021/07/09 06:41:53;;;;;;;12.20;5.53;;;17.10;99.90;;;;;;5113123;28;20636;-67
2021/07/09 06:44:20;;;;;;;6.73;5.27;;;17.10;99.90;;;;;;5113033;28;20612;-67
2021/07/09 06:46:47;;;;;;;6.77;4.90;;;17.20;99.90;;;;;;5113463;28;20592;-67
2021/07/09 06:49:13;;;;;;;9.77;4.60;;;17.10;99.90;;;;;;5113578;28;21016;-67
2021/07/09 06:51:39;;;;;;;5.97;4.97;;;17.10;99.90;;;;;;5117067;28;21001;-67
2021/07/09 06:54:05;;;;;;;14.60;5.77;;;17.10;99.90;;;;;;5117724;28;20591;-67
2021/07/09 06:56:32;;;;;;;4.57;4.27;;;17.10;99.90;;;;;;5117424;28;21127;-67
2021/07/09 06:58:58;;;;;;;10.63;4.67;;;17.20;99.90;;;;;;5117146;28;20639;-67
2021/07/09 07:01:24;;;;;;;24.27;6.27;;;17.20;99.90;;;;;;5116688;28;21155;-67
2021/07/09 07:03:51;;;;;;;6.27;5.20;;;17.30;99.90;;;;;;5116810;28;21021;-67
2021/07/09 07:06:17;;;;;;;10.53;5.33;;;17.30;99.90;;;;;;5116651;28;20627;-67
2021/07/09 07:08:43;;;;;;;11.40;4.97;;;17.40;99.90;;;;;;5116866;28;20632;-67
2021/07/09 07:11:10;;;;;;;5.30;4.40;;;17.40;99.90;;;;;;5116615;28;20629;-67
2021/07/09 07:13:36;;;;;;;5.87;5.30;;;17.40;99.90;;;;;;5116337;28;21196;-67
2021/07/09 07:16:04;;;;;;;9.63;5.60;;;17.40;99.90;;;;;;5116612;28;20620;-67
2021/07/09 07:18:30;;;;;;;5.83;4.90;;;17.40;99.90;;;;;;5116200;28;20658;-67
2021/07/09 07:20:57;;;;;;;7.17;5.00;;;17.50;99.90;;;;;;5116328;28;20622;-67
2021/07/09 07:23:23;;;;;;;8.23;5.40;;;17.60;99.90;;;;;;5116271;28;20636;-67
2021/07/09 07:25:50;;;;;;;5.60;4.30;;;17.80;99.90;;;;;;5115859;28;20627;-67
2021/07/09 07:28:16;;;;;;;4.90;4.50;;;17.80;99.90;;;;;;5116357;28;20634;-67
2021/07/09 07:30:43;;;;;;;4.33;4.03;;;17.80;99.90;;;;;;5116232;28;20673;-67
2021/07/09 07:33:10;;;;;;;6.67;4.83;;;18.00;99.90;;;;;;5116076;28;20735;-67
2021/07/09 07:35:38;;;;;;;7.33;4.90;;;18.20;99.90;;;;;;5115865;28;20760;-67
2021/07/09 07:38:05;;;;;;;5.53;4.90;;;18.50;99.90;;;;;;5115485;28;20642;-67
2021/07/09 07:40:32;;;;;;;17.37;6.43;;;18.60;99.90;;;;;;5115881;28;20664;-67
2021/07/09 07:42:58;;;;;;;17.70;6.00;;;18.50;99.90;;;;;;5115756;28;20608;-67
2021/07/09 07:45:25;;;;;;;8.80;5.40;;;18.50;99.90;;;;;;5097520;28;20616;-67
2021/07/09 07:47:52;;;;;;;8.90;5.17;;;19.00;99.90;;;;;;5111594;28;20616;-67
2021/07/09 07:50:21;;;;;;;6.03;4.43;;;18.70;99.90;;;;;;5095012;28;20624;-67
2021/07/09 07:52:49;;;;;;;8.03;5.33;;;18.70;99.90;;;;;;5095449;28;20657;-70
2021/07/09 07:55:16;;;;;;;9.00;5.43;;;18.60;99.90;;;;;;5077655;28;21151;-67
2021/07/09 07:57:43;;;;;;;5.50;5.03;;;18.80;99.90;;;;;;5095233;28;21163;-67
2021/07/09 08:00:11;;;;;;;6.90;6.03;;;18.90;99.90;;;;;;5095642;28;20635;-67
2021/07/09 08:02:37;;;;;;;10.43;6.23;;;19.00;99.90;;;;;;5094444;28;21173;-67
2021/07/09 08:05:05;;;;;;;7.10;6.40;;;18.90;99.90;;;;;;5095866;28;20612;-67
2021/07/09 08:07:43;;;;;;;16.77;6.10;;;19.20;99.90;;;;;;5095807;28;20566;-67
2021/07/09 08:10:10;;;;;;;12.43;6.70;;;19.50;99.90;;;;;;5094922;28;20961;-67
2021/07/09 08:12:38;;;;;;;6.10;5.70;;;19.40;99.90;;;;;;5095247;28;20613;-67
2021/07/09 08:15:05;;;;;;;8.10;6.43;;;19.70;99.90;;;;;;5094748;28;20971;-67
2021/07/09 08:17:32;;;;;;;14.40;6.37;;;19.80;99.90;;;;;;5094837;28;20628;-67
2021/07/09 08:19:58;;;;;;;9.00;6.23;;;19.70;99.90;;;;;;5095250;28;20636;-67
2021/07/09 08:22:24;;;;;;;10.00;6.90;;;19.80;99.90;;;;;;5095379;28;20616;-67
2021/07/09 08:24:51;;;;;;;21.33;7.53;;;19.90;99.90;;;;;;5096013;28;20594;-67
2021/07/09 08:27:17;;;;;;;10.73;5.80;;;20.30;99.90;;;;;;5095474;28;20623;-67
2021/07/09 08:29:43;;;;;;;10.60;6.37;;;20.40;99.90;;;;;;5095166;28;20605;-67
2021/07/09 08:32:10;;;;;;;6.97;6.10;;;20.50;99.90;;;;;;5094080;28;20652;-67
2021/07/09 08:34:37;;;;;;;9.13;7.03;;;20.50;99.90;;;;;;5095000;28;20600;-67
2021/07/09 08:37:04;;;;;;;7.07;5.53;;;20.60;99.90;;;;;;5076539;28;20648;-67
2021/07/09 08:39:30;;;;;;;6.23;5.60;;;20.40;99.90;;;;;;5094224;28;21187;-67
2021/07/09 08:41:57;;;;;;;7.57;6.40;;;20.30;99.90;;;;;;5094942;28;20623;-67
2021/07/09 08:44:23;;;;;;;9.20;5.90;;;20.40;99.90;;;;;;5095007;28;20601;-67
2021/07/09 08:46:54;;;;;;;16.93;5.53;;;20.60;99.90;;;;;;5094859;28;20593;-65
2021/07/09 08:49:22;;;;;;;9.63;5.50;;;20.50;99.90;;;;;;5076661;28;20626;-66
2021/07/09 08:51:49;;;;;;;17.13;6.60;;;20.80;99.90;;;;;;5099596;28;20624;-66
2021/07/09 08:54:17;;;;;;;10.30;5.43;;;20.80;99.90;;;;;;5114754;28;20608;-66
2021/07/09 08:56:45;;;;;;;17.33;6.20;;;21.20;99.90;;;;;;5114478;28;20620;-66
2021/07/09 08:59:12;;;;;;;24.10;6.17;;;21.20;99.90;;;;;;5114393;28;21047;-66
2021/07/09 09:02:03;;;;;;;19.97;7.40;;;21.30;99.90;;;;;;5078723;28;20608;-66
2021/07/09 09:04:33;;;;;;;6.40;5.80;;;20.90;99.90;;;;;;5114056;28;20636;-66
2021/07/09 09:07:00;;;;;;;6.37;5.37;;;20.80;99.90;;;;;;5114293;28;20595;-67
2021/07/09 09:09:26;;;;;;;10.77;5.23;;;21.10;99.90;;;;;;5114042;28;20759;-66
2021/07/09 09:12:10;;;;;;;8.70;5.87;;;20.90;99.90;;;;;;5114103;28;20624;-66
2021/07/09 09:14:46;;;;;;;7.37;5.57;;;21.10;99.90;;;;;;5113956;28;20585;-66
2021/07/09 09:17:31;;;;;;;9.70;5.30;;;20.60;99.90;;;;;;5092336;28;20621;-66
2021/07/09 09:20:05;;;;;;;6.83;6.13;;;20.80;99.90;;;;;;5107108;28;20742;-65
2021/07/09 09:22:32;;;;;;;8.80;5.10;;;20.60;99.90;;;;;;5100027;28;20616;-66
2021/07/09 09:24:59;;;;;;;5.53;4.70;;;20.90;99.90;;;;;;5113112;28;20628;-66
2021/07/09 09:27:25;;;;;;;6.60;5.90;;;20.80;99.90;;;;;;5114002;28;20710;-67
2021/07/09 09:29:51;;;;;;;6.73;5.60;;;20.90;99.90;;;;;;5113904;28;20627;-67
2021/07/09 09:32:18;;;;;;;6.47;5.07;;;21.30;99.90;;;;;;5112249;28;20689;-67
2021/07/09 09:34:45;;;;;;;6.13;5.27;;;21.80;99.90;;;;;;5099144;28;20616;-66
2021/07/09 09:37:28;;;;;;;4.90;4.50;;;21.90;99.90;;;;;;5113726;28;20623;-66
2021/07/09 09:39:54;;;;;;;6.23;5.23;;;22.00;99.90;;;;;;5112992;28;20652;-66
2021/07/09 09:42:24;;;;;;;5.30;4.80;;;22.10;99.90;;;;;;5113896;28;20618;-67
2021/07/09 09:44:58;;;;;;;5.10;4.60;;;21.80;99.90;;;;;;5113288;28;20620;-67
2021/07/09 09:47:27;;;;;;;7.20;4.90;;;21.80;99.90;;;;;;5113055;28;20784;-67
2021/07/09 09:49:56;;;;;;;5.17;4.67;;;21.90;99.90;;;;;;5113600;28;20600;-67
2021/07/09 09:52:53;;;;;;;7.57;6.40;;;22.30;85.40;;;;;;5114037;28;20592;-67
2021/07/09 09:55:19;;;;;;;13.13;5.70;;;22.50;28.30;;;;;;5095950;28;20632;-67
2021/07/09 09:57:47;;;;;;;6.20;5.60;;;22.80;5.00;;;;;;5113924;28;20594;-67
2021/07/09 10:00:16;;;;;;;5.00;4.53;;;23.20;1.00;;;;;;5109318;28;20652;-67
2021/07/09 10:02:44;;;;;;;5.30;4.80;;;22.60;1.00;;;;;;5110987;28;21130;-67
2021/07/09 10:05:11;;;;;;;8.20;5.30;;;22.20;4.30;;;;;;5112355;28;20635;-67
2021/07/09 10:07:38;;;;;;;6.10;5.70;;;22.50;39.00;;;;;;5113042;28;20612;-68
2021/07/09 10:10:05;;;;;;;6.10;5.53;;;22.40;3.90;;;;;;5113094;28;21158;-68
2021/07/09 10:12:32;;;;;;;7.27;5.50;;;22.30;1.00;;;;;;5113663;28;20624;-68
2021/07/09 10:15:02;;;;;;;6.83;6.20;;;23.10;1.00;;;;;;5113530;28;20612;-68
2021/07/09 10:17:30;;;;;;;7.77;6.53;;;23.50;1.00;;;;;;5113324;28;20617;-67
2021/07/09 10:19:59;;;;;;;7.37;6.67;;;22.80;5.60;;;;;;5113516;28;20652;-67
2021/07/09 10:22:26;;;;;;;11.77;8.50;;;22.30;56.70;;;;;;5113858;28;20611;-68
2021/07/09 10:24:54;;;;;;;12.23;11.10;;;21.10;99.90;;;;;;5112860;28;21143;-67
2021/07/09 10:27:23;;;;;;;12.50;9.20;;;18.80;99.90;;;;;;5112845;28;20701;-67
2021/07/09 10:29:50;;;;;;;10.80;9.73;;;18.20;99.90;;;;;;5113825;28;20616;-67
2021/07/09 10:32:38;;;;;;;14.23;12.87;;;18.00;99.90;;;;;;5101703;28;20649;-67
2021/07/09 10:35:10;;;;;;;12.87;11.83;;;18.00;99.90;;;;;;5098920;28;20612;-67
2021/07/09 10:37:37;;;;;;;17.07;15.37;;;18.00;99.90;;;;;;5112575;28;20998;-67
2021/07/09 10:40:09;;;;;;;17.53;15.93;;;18.30;99.90;;;;;;5112663;28;20686;-67
2021/07/09 10:42:40;;;;;;;15.33;13.93;;;18.50;99.90;;;;;;5112396;28;21139;-67
2021/07/09 10:45:22;;;;;;;17.07;15.43;;;18.50;99.90;;;;;;5112944;28;20585;-67
2021/07/09 10:48:06;;;;;;;17.77;15.23;;;18.60;99.90;;;;;;5112412;28;21166;-67
2021/07/09 10:50:47;;;;;;;16.90;14.40;;;19.00;99.90;;;;;;5100039;28;20593;-67
2021/07/09 10:53:13;;;;;;;14.53;13.23;;;19.20;99.90;;;;;;5112369;28;20620;-67
2021/07/09 10:55:43;;;;;;;14.53;13.13;;;19.40;99.90;;;;;;5112861;28;20608;-67
2021/07/09 10:58:10;;;;;;;14.30;12.90;;;19.80;99.90;;;;;;5112300;28;20612;-67
2021/07/09 11:00:47;;;;;;;14.80;13.30;;;19.90;99.90;;;;;;5112190;28;20648;-67
2021/07/09 11:03:26;;;;;;;15.83;11.10;;;20.10;99.90;;;;;;5113017;28;20607;-66
2021/07/09 11:05:54;;;;;;;15.27;13.00;;;20.50;99.90;;;;;;5101678;28;21305;-66
2021/07/09 11:08:32;;;;;;;11.17;10.07;;;20.90;99.90;;;;;;5099651;28;20614;-66
2021/07/09 11:11:03;;;;;;;10.10;9.27;;;21.30;99.90;;;;;;5112886;28;20619;-66
2021/07/09 11:13:42;;;;;;;10.43;9.53;;;21.50;99.90;;;;;;5098943;28;20624;-68
2021/07/09 11:16:32;;;;;;;9.50;8.70;;;22.10;99.90;;;;;;5098626;28;20624;-65
2021/07/09 11:19:08;;;;;;;10.30;8.97;;;22.00;99.90;;;;;;5112597;28;20990;-68
2021/07/09 11:21:37;;;;;;;11.10;10.00;;;21.60;99.90;;;;;;5099079;28;20581;-67
2021/07/09 11:24:17;;;;;;;10.57;9.50;;;21.90;99.90;;;;;;5097583;28;21201;-65
2021/07/09 11:26:46;;;;;;;9.50;8.80;;;22.60;99.90;;;;;;5111797;28;20624;-67
2021/07/09 11:29:19;;;;;;;10.10;9.10;;;23.30;99.90;;;;;;5112639;28;20620;-67
2021/07/09 11:31:46;;;;;;;9.40;8.57;;;23.20;99.90;;;;;;5112222;28;20655;-67
2021/07/09 11:34:14;;;;;;;11.57;10.00;;;22.90;99.90;;;;;;5113003;28;20639;-67
2021/07/09 11:37:01;;;;;;;10.60;9.17;;;23.50;99.90;;;;;;5115013;28;20596;-67
2021/07/09 11:39:34;;;;;;;10.20;9.20;;;22.70;99.90;;;;;;5116523;28;20596;-67
2021/07/09 11:42:03;;;;;;;10.80;8.50;;;23.30;99.90;;;;;;5115854;28;20640;-66
2021/07/09 11:44:37;;;;;;;8.17;7.50;;;23.10;99.90;;;;;;5116363;28;20966;-67
2021/07/09 11:47:06;;;;;;;7.50;6.90;;;22.30;99.90;;;;;;5116403;28;20576;-67
2021/07/09 11:49:35;;;;;;;5.43;5.13;;;22.20;99.90;;;;;;5115979;28;20663;-67
2021/07/09 11:52:08;;;;;;;5.10;4.80;;;21.70;99.90;;;;;;5116274;28;21159;-67
2021/07/09 11:54:40;;;;;;;5.43;5.03;;;21.50;99.90;;;;;;5116313;28;21111;-66
2021/07/09 11:57:18;;;;;;;5.07;4.60;;;21.20;99.90;;;;;;5115755;28;20615;-67
2021/07/09 11:59:45;;;;;;;4.87;4.47;;;21.40;99.90;;;;;;5099283;28;20774;-67
2021/07/09 12:02:13;;;;;;;5.30;4.90;;;21.60;99.90;;;;;;5116050;28;20615;-67
2021/07/09 12:04:47;;;;;;;6.50;5.90;;;21.70;99.90;;;;;;5115954;28;20640;-67
2021/07/09 12:07:24;;;;;;;7.90;7.30;;;21.90;99.90;;;;;;5115999;28;21099;-67
2021/07/09 12:09:52;;;;;;;8.00;7.20;;;22.10;99.90;;;;;;5115416;28;20620;-67
2021/07/09 12:12:19;;;;;;;8.60;7.80;;;22.70;99.90;;;;;;5115448;28;20671;-67
2021/07/09 12:14:49;;;;;;;5.63;5.17;;;23.90;99.90;;;;;;5115666;28;20970;-67
2021/07/09 12:17:15;;;;;;;5.17;4.67;;;24.80;1.00;;;;;;5115737;28;20624;-65
2021/07/09 12:20:08;;;;;;;5.00;4.70;;;24.60;1.00;;;;;;5115189;28;21003;-65
2021/07/09 12:22:42;;;;;;;3.77;3.57;;;24.40;1.00;;;;;;5115810;28;20592;-65
2021/07/09 12:25:14;;;;;;;5.67;5.20;;;24.40;1.00;;;;;;5115533;28;20630;-65
2021/07/09 12:27:42;;;;;;;6.23;5.73;;;23.90;18.10;;;;;;5115378;28;20559;-65
2021/07/09 12:30:17;;;;;;;6.43;6.03;;;23.80;5.30;;;;;;5115626;28;20958;-66
2021/07/09 12:32:52;;;;;;;7.73;7.03;;;23.50;99.90;;;;;;5114665;28;20652;-66
2021/07/09 12:35:19;;;;;;;7.33;6.63;;;22.90;69.00;;;;;;5115598;28;20564;-66
2021/07/09 12:37:59;;;;;;;6.80;6.10;;;22.20;99.90;;;;;;5115462;28;20599;-67
2021/07/09 12:40:46;;;;;;;6.80;6.30;;;21.70;99.90;;;;;;5115293;28;20644;-67
2021/07/09 12:43:18;;;;;;;10.30;6.90;;;21.40;99.90;;;;;;5096827;28;20618;-67
2021/07/09 12:46:11;;;;;;;8.00;6.17;;;21.20;99.90;;;;;;5114461;28;20639;-67
2021/07/09 12:48:44;;;;;;;9.40;6.40;;;21.00;99.90;;;;;;5114485;28;20939;-67
2021/07/09 12:51:37;;;;;;;7.50;6.87;;;21.10;99.90;;;;;;5114921;28;20620;-67
2021/07/09 12:54:12;;;;;;;9.13;6.90;;;21.50;99.90;;;;;;5104849;28;21174;-67